sensor_id;sensor_type;location;lat;lon;timestamp;P1;P2;P0
52672;PMS5003;38568;53.260;-2.504;2023-06-19T00:01:08;24;24;
52672;PMS5003;38568;53.260;-2.504;2023-06-19T00:03:33;23;22;
52672;PMS5003;38568;53.260;-2.504;2023-06-19T00:05:59;23;22;
52672;PMS5003;38568;53.260;-2.504;2023-06-19T00:08:24;24;24;
52672;PMS5003;38568;53.260;-2.504;2023-06-19T00:10:50;27;25;
52672;PMS5003;38568;53.260;-2.504;2023-06-19T00:13:15;25;24;
52672;PMS5003;38568;53.260;-2.504;2023-06-19T00:15:41;24;22;
52672;PMS5003;38568;53.260;-2.504;2023-06-19T00:18:06;24;23;
52672;PMS5003;38568;53.260;-2.504;2023-06-19T00:20:32;24;23;
52672;PMS5003;38568;53.260;-2.504;2023-06-19T00:22:57;24;23;
52672;PMS5003;38568;53.260;-2.504;2023-06-19T00:25:22;23;22;
52672;PMS5003;38568;53.260;-2.504;2023-06-19T00:27:48;23;23;
52672;PMS5003;38568;53.260;-2.504;2023-06-19T00:30:14;25;24;
52672;PMS5003;38568;53.260;-2.504;2023-06-19T00:32:39;21;21;
52672;PMS5003;38568;53.260;-2.504;2023-06-19T00:35:06;23;23;
52672;PMS5003;38568;53.260;-2.504;2023-06-19T00:37:30;26;24;
52672;PMS5003;38568;53.260;-2.504;2023-06-19T00:39:56;25;25;
52672;PMS5003;38568;53.260;-2.504;2023-06-19T00:42:21;22;21;
52672;PMS5003;38568;53.260;-2.504;2023-06-19T00:44:47;25;25;
52672;PMS5003;38568;53.260;-2.504;2023-06-19T00:47:13;24;23;
52672;PMS5003;38568;53.260;-2.504;2023-06-19T00:49:39;24;22;
52672;PMS5003;38568;53.260;-2.504;2023-06-19T00:52:05;23;22;
52672;PMS5003;38568;53.260;-2.504;2023-06-19T00:54:30;22;22;
52672;PMS5003;38568;53.260;-2.504;2023-06-19T00:56:55;23;23;
52672;PMS5003;38568;53.260;-2.504;2023-06-19T00:59:21;23;23;
52672;PMS5003;38568;53.260;-2.504;2023-06-19T01:01:46;23;22;
52672;PMS5003;38568;53.260;-2.504;2023-06-19T01:04:12;24;24;
52672;PMS5003;38568;53.260;-2.504;2023-06-19T01:06:38;22;22;
52672;PMS5003;38568;53.260;-2.504;2023-06-19T01:09:04;21;20;
52672;PMS5003;38568;53.260;-2.504;2023-06-19T01:11:30;19;19;
52672;PMS5003;38568;53.260;-2.504;2023-06-19T01:13:56;22;20;
52672;PMS5003;38568;53.260;-2.504;2023-06-19T01:16:20;19;19;
52672;PMS5003;38568;53.260;-2.504;2023-06-19T01:18:45;18;18;
52672;PMS5003;38568;53.260;-2.504;2023-06-19T01:21:11;24;24;
52672;PMS5003;38568;53.260;-2.504;2023-06-19T01:23:36;22;22;
52672;PMS5003;38568;53.260;-2.504;2023-06-19T01:26:02;20;20;
52672;PMS5003;38568;53.260;-2.504;2023-06-19T01:28:28;19;19;
52672;PMS5003;38568;53.260;-2.504;2023-06-19T01:30:54;21;21;
52672;PMS5003;38568;53.260;-2.504;2023-06-19T01:33:20;19;19;
52672;PMS5003;38568;53.260;-2.504;2023-06-19T01:35:45;21;21;
52672;PMS5003;38568;53.260;-2.504;2023-06-19T01:38:10;24;24;
52672;PMS5003;38568;53.260;-2.504;2023-06-19T01:40:35;20;20;
52672;PMS5003;38568;53.260;-2.504;2023-06-19T01:43:02;19;19;
52672;PMS5003;38568;53.260;-2.504;2023-06-19T01:45:27;20;19;
52672;PMS5003;38568;53.260;-2.504;2023-06-19T01:47:52;19;19;
52672;PMS5003;38568;53.260;-2.504;2023-06-19T01:50:18;20;18;
52672;PMS5003;38568;53.260;-2.504;2023-06-19T01:52:44;19;18;
52672;PMS5003;38568;53.260;-2.504;2023-06-19T01:55:09;23;21;
52672;PMS5003;38568;53.260;-2.504;2023-06-19T01:57:34;17;16;
52672;PMS5003;38568;53.260;-2.504;2023-06-19T02:00:00;21;21;
52672;PMS5003;38568;53.260;-2.504;2023-06-19T02:02:25;22;21;
52672;PMS5003;38568;53.260;-2.504;2023-06-19T02:04:51;16;16;
52672;PMS5003;38568;53.260;-2.504;2023-06-19T02:07:17;21;18;
52672;PMS5003;38568;53.260;-2.504;2023-06-19T02:09:42;17;17;
52672;PMS5003;38568;53.260;-2.504;2023-06-19T02:12:08;20;19;
52672;PMS5003;38568;53.260;-2.504;2023-06-19T02:14:33;17;16;
52672;PMS5003;38568;53.260;-2.504;2023-06-19T02:16:59;18;17;
52672;PMS5003;38568;53.260;-2.504;2023-06-19T02:19:24;21;21;
52672;PMS5003;38568;53.260;-2.504;2023-06-19T02:21:50;20;20;
52672;PMS5003;38568;53.260;-2.504;2023-06-19T02:24:16;19;18;
52672;PMS5003;38568;53.260;-2.504;2023-06-19T02:26:41;18;17;
52672;PMS5003;38568;53.260;-2.504;2023-06-19T02:29:07;16;16;
52672;PMS5003;38568;53.260;-2.504;2023-06-19T02:31:33;19;18;
52672;PMS5003;38568;53.260;-2.504;2023-06-19T02:33:59;18;18;
52672;PMS5003;38568;53.260;-2.504;2023-06-19T02:36:24;21;20;
52672;PMS5003;38568;53.260;-2.504;2023-06-19T02:38:50;17;17;
52672;PMS5003;38568;53.260;-2.504;2023-06-19T02:41:15;19;19;
52672;PMS5003;38568;53.260;-2.504;2023-06-19T02:43:42;18;17;
52672;PMS5003;38568;53.260;-2.504;2023-06-19T02:46:06;20;19;
52672;PMS5003;38568;53.260;-2.504;2023-06-19T02:48:32;18;17;
52672;PMS5003;38568;53.260;-2.504;2023-06-19T02:50:58;20;18;
52672;PMS5003;38568;53.260;-2.504;2023-06-19T02:53:23;17;17;
52672;PMS5003;38568;53.260;-2.504;2023-06-19T02:55:49;14;14;
52672;PMS5003;38568;53.260;-2.504;2023-06-19T02:58:15;18;17;
52672;PMS5003;38568;53.260;-2.504;2023-06-19T03:00:41;18;18;
52672;PMS5003;38568;53.260;-2.504;2023-06-19T03:03:06;17;15;
52672;PMS5003;38568;53.260;-2.504;2023-06-19T03:05:31;18;18;
52672;PMS5003;38568;53.260;-2.504;2023-06-19T03:07:57;14;14;
52672;PMS5003;38568;53.260;-2.504;2023-06-19T03:10:23;16;15;
52672;PMS5003;38568;53.260;-2.504;2023-06-19T03:12:49;18;17;
52672;PMS5003;38568;53.260;-2.504;2023-06-19T03:15:14;14;14;
52672;PMS5003;38568;53.260;-2.504;2023-06-19T03:17:40;18;17;
52672;PMS5003;38568;53.260;-2.504;2023-06-19T03:20:06;15;15;
52672;PMS5003;38568;53.260;-2.504;2023-06-19T03:22:31;15;14;
52672;PMS5003;38568;53.260;-2.504;2023-06-19T03:24:57;18;16;
52672;PMS5003;38568;53.260;-2.504;2023-06-19T03:27:22;15;15;
52672;PMS5003;38568;53.260;-2.504;2023-06-19T03:29:47;16;16;
52672;PMS5003;38568;53.260;-2.504;2023-06-19T03:32:12;17;16;
52672;PMS5003;38568;53.260;-2.504;2023-06-19T03:34:38;16;16;
52672;PMS5003;38568;53.260;-2.504;2023-06-19T03:37:04;15;14;
52672;PMS5003;38568;53.260;-2.504;2023-06-19T03:39:29;16;15;
52672;PMS5003;38568;53.260;-2.504;2023-06-19T03:41:54;17;16;
52672;PMS5003;38568;53.260;-2.504;2023-06-19T03:44:20;15;14;
52672;PMS5003;38568;53.260;-2.504;2023-06-19T03:46:45;14;14;
52672;PMS5003;38568;53.260;-2.504;2023-06-19T03:49:11;16;15;
52672;PMS5003;38568;53.260;-2.504;2023-06-19T03:51:37;17;17;
52672;PMS5003;38568;53.260;-2.504;2023-06-19T03:54:03;17;17;
52672;PMS5003;38568;53.260;-2.504;2023-06-19T03:56:28;15;15;
52672;PMS5003;38568;53.260;-2.504;2023-06-19T03:58:54;17;16;
52672;PMS5003;38568;53.260;-2.504;2023-06-19T04:01:19;18;18;
52672;PMS5003;38568;53.260;-2.504;2023-06-19T04:03:45;17;17;
52672;PMS5003;38568;53.260;-2.504;2023-06-19T04:06:11;16;16;
52672;PMS5003;38568;53.260;-2.504;2023-06-19T04:08:37;18;17;
52672;PMS5003;38568;53.260;-2.504;2023-06-19T04:11:02;14;14;
52672;PMS5003;38568;53.260;-2.504;2023-06-19T04:13:28;13;13;
52672;PMS5003;38568;53.260;-2.504;2023-06-19T04:15:53;13;13;
52672;PMS5003;38568;53.260;-2.504;2023-06-19T04:18:19;15;15;
52672;PMS5003;38568;53.260;-2.504;2023-06-19T04:20:45;20;20;
52672;PMS5003;38568;53.260;-2.504;2023-06-19T04:23:10;14;14;
52672;PMS5003;38568;53.260;-2.504;2023-06-19T04:25:36;16;15;
52672;PMS5003;38568;53.260;-2.504;2023-06-19T04:28:02;15;14;
52672;PMS5003;38568;53.260;-2.504;2023-06-19T04:30:28;16;15;
52672;PMS5003;38568;53.260;-2.504;2023-06-19T04:32:53;13;13;
52672;PMS5003;38568;53.260;-2.504;2023-06-19T04:35:19;18;17;
52672;PMS5003;38568;53.260;-2.504;2023-06-19T04:37:45;14;13;
52672;PMS5003;38568;53.260;-2.504;2023-06-19T04:40:10;17;16;
52672;PMS5003;38568;53.260;-2.504;2023-06-19T04:42:35;17;15;
52672;PMS5003;38568;53.260;-2.504;2023-06-19T04:45:01;18;17;
52672;PMS5003;38568;53.260;-2.504;2023-06-19T04:47:27;17;16;
52672;PMS5003;38568;53.260;-2.504;2023-06-19T04:49:53;15;14;
52672;PMS5003;38568;53.260;-2.504;2023-06-19T04:52:19;13;13;
52672;PMS5003;38568;53.260;-2.504;2023-06-19T04:54:44;18;17;
52672;PMS5003;38568;53.260;-2.504;2023-06-19T04:57:09;16;16;
52672;PMS5003;38568;53.260;-2.504;2023-06-19T04:59:35;13;13;
52672;PMS5003;38568;53.260;-2.504;2023-06-19T05:02:01;14;13;
52672;PMS5003;38568;53.260;-2.504;2023-06-19T05:04:27;17;17;
52672;PMS5003;38568;53.260;-2.504;2023-06-19T05:06:52;17;15;
52672;PMS5003;38568;53.260;-2.504;2023-06-19T05:09:18;18;17;
52672;PMS5003;38568;53.260;-2.504;2023-06-19T05:11:43;16;16;
52672;PMS5003;38568;53.260;-2.504;2023-06-19T05:14:09;16;16;
52672;PMS5003;38568;53.260;-2.504;2023-06-19T05:16:35;17;17;
52672;PMS5003;38568;53.260;-2.504;2023-06-19T05:19:00;14;14;
52672;PMS5003;38568;53.260;-2.504;2023-06-19T05:21:25;15;14;
52672;PMS5003;38568;53.260;-2.504;2023-06-19T05:23:50;16;16;
52672;PMS5003;38568;53.260;-2.504;2023-06-19T05:26:16;15;15;
52672;PMS5003;38568;53.260;-2.504;2023-06-19T05:28:41;17;16;
52672;PMS5003;38568;53.260;-2.504;2023-06-19T05:31:07;16;16;
52672;PMS5003;38568;53.260;-2.504;2023-06-19T05:33:33;12;11;
52672;PMS5003;38568;53.260;-2.504;2023-06-19T05:35:58;15;15;
52672;PMS5003;38568;53.260;-2.504;2023-06-19T05:38:24;15;14;
52672;PMS5003;38568;53.260;-2.504;2023-06-19T05:40:50;13;13;
52672;PMS5003;38568;53.260;-2.504;2023-06-19T05:43:16;12;12;
52672;PMS5003;38568;53.260;-2.504;2023-06-19T05:45:42;13;12;
52672;PMS5003;38568;53.260;-2.504;2023-06-19T05:48:08;15;14;
52672;PMS5003;38568;53.260;-2.504;2023-06-19T05:50:33;12;12;
52672;PMS5003;38568;53.260;-2.504;2023-06-19T05:52:59;13;12;
52672;PMS5003;38568;53.260;-2.504;2023-06-19T05:55:24;14;14;
52672;PMS5003;38568;53.260;-2.504;2023-06-19T05:57:50;15;14;
52672;PMS5003;38568;53.260;-2.504;2023-06-19T06:00:16;11;11;
52672;PMS5003;38568;53.260;-2.504;2023-06-19T06:02:42;14;13;
52672;PMS5003;38568;53.260;-2.504;2023-06-19T06:05:08;16;15;
52672;PMS5003;38568;53.260;-2.504;2023-06-19T06:07:33;14;14;
52672;PMS5003;38568;53.260;-2.504;2023-06-19T06:09:58;14;14;
52672;PMS5003;38568;53.260;-2.504;2023-06-19T06:12:24;16;16;
52672;PMS5003;38568;53.260;-2.504;2023-06-19T06:14:50;11;11;
52672;PMS5003;38568;53.260;-2.504;2023-06-19T06:17:15;13;12;
52672;PMS5003;38568;53.260;-2.504;2023-06-19T06:19:40;13;12;
52672;PMS5003;38568;53.260;-2.504;2023-06-19T06:22:06;15;14;
52672;PMS5003;38568;53.260;-2.504;2023-06-19T06:24:31;13;12;
52672;PMS5003;38568;53.260;-2.504;2023-06-19T06:26:57;11;11;
52672;PMS5003;38568;53.260;-2.504;2023-06-19T06:29:23;13;12;
52672;PMS5003;38568;53.260;-2.504;2023-06-19T06:31:49;14;14;
52672;PMS5003;38568;53.260;-2.504;2023-06-19T06:34:14;13;13;
52672;PMS5003;38568;53.260;-2.504;2023-06-19T06:36:40;15;15;
52672;PMS5003;38568;53.260;-2.504;2023-06-19T06:39:05;13;13;
52672;PMS5003;38568;53.260;-2.504;2023-06-19T06:41:30;11;11;
52672;PMS5003;38568;53.260;-2.504;2023-06-19T06:43:56;13;12;
52672;PMS5003;38568;53.260;-2.504;2023-06-19T06:46:22;14;14;
52672;PMS5003;38568;53.260;-2.504;2023-06-19T06:48:48;13;12;
52672;PMS5003;38568;53.260;-2.504;2023-06-19T06:51:14;12;12;
52672;PMS5003;38568;53.260;-2.504;2023-06-19T06:53:40;12;12;
52672;PMS5003;38568;53.260;-2.504;2023-06-19T06:56:10;16;15;
52672;PMS5003;38568;53.260;-2.504;2023-06-19T06:58:31;14;14;
52672;PMS5003;38568;53.260;-2.504;2023-06-19T07:00:57;13;13;
52672;PMS5003;38568;53.260;-2.504;2023-06-19T07:03:22;11;10;
52672;PMS5003;38568;53.260;-2.504;2023-06-19T07:05:48;12;12;
52672;PMS5003;38568;53.260;-2.504;2023-06-19T07:08:13;11;11;
52672;PMS5003;38568;53.260;-2.504;2023-06-19T07:10:38;18;17;
52672;PMS5003;38568;53.260;-2.504;2023-06-19T07:13:04;16;14;
52672;PMS5003;38568;53.260;-2.504;2023-06-19T07:15:30;18;16;
52672;PMS5003;38568;53.260;-2.504;2023-06-19T07:17:55;14;13;
52672;PMS5003;38568;53.260;-2.504;2023-06-19T07:20:20;14;14;
52672;PMS5003;38568;53.260;-2.504;2023-06-19T07:22:45;13;13;
52672;PMS5003;38568;53.260;-2.504;2023-06-19T07:25:11;12;12;
52672;PMS5003;38568;53.260;-2.504;2023-06-19T07:27:37;12;12;
52672;PMS5003;38568;53.260;-2.504;2023-06-19T07:30:02;12;11;
52672;PMS5003;38568;53.260;-2.504;2023-06-19T07:32:28;15;14;
52672;PMS5003;38568;53.260;-2.504;2023-06-19T07:34:53;11;11;
52672;PMS5003;38568;53.260;-2.504;2023-06-19T07:37:19;14;13;
52672;PMS5003;38568;53.260;-2.504;2023-06-19T07:39:45;15;13;
52672;PMS5003;38568;53.260;-2.504;2023-06-19T07:42:12;10;10;
52672;PMS5003;38568;53.260;-2.504;2023-06-19T07:44:36;13;13;
52672;PMS5003;38568;53.260;-2.504;2023-06-19T07:47:02;10;9;
52672;PMS5003;38568;53.260;-2.504;2023-06-19T07:49:27;14;11;
52672;PMS5003;38568;53.260;-2.504;2023-06-19T07:51:53;15;14;
52672;PMS5003;38568;53.260;-2.504;2023-06-19T07:54:19;10;10;
52672;PMS5003;38568;53.260;-2.504;2023-06-19T07:56:45;11;11;
52672;PMS5003;38568;53.260;-2.504;2023-06-19T07:59:10;69;65;
52672;PMS5003;38568;53.260;-2.504;2023-06-19T08:01:35;29;26;
52672;PMS5003;38568;53.260;-2.504;2023-06-19T08:04:01;36;35;
52672;PMS5003;38568;53.260;-2.504;2023-06-19T08:06:27;36;35;
52672;PMS5003;38568;53.260;-2.504;2023-06-19T08:08:52;29;28;
52672;PMS5003;38568;53.260;-2.504;2023-06-19T08:11:18;30;27;
52672;PMS5003;38568;53.260;-2.504;2023-06-19T08:13:44;23;21;
52672;PMS5003;38568;53.260;-2.504;2023-06-19T08:16:09;22;22;
52672;PMS5003;38568;53.260;-2.504;2023-06-19T08:18:34;22;22;
52672;PMS5003;38568;53.260;-2.504;2023-06-19T08:21:00;16;14;
52672;PMS5003;38568;53.260;-2.504;2023-06-19T08:23:25;20;19;
52672;PMS5003;38568;53.260;-2.504;2023-06-19T08:25:51;19;17;
52672;PMS5003;38568;53.260;-2.504;2023-06-19T08:28:17;15;14;
52672;PMS5003;38568;53.260;-2.504;2023-06-19T08:30:42;16;16;
52672;PMS5003;38568;53.260;-2.504;2023-06-19T08:33:08;13;12;
52672;PMS5003;38568;53.260;-2.504;2023-06-19T08:35:33;13;11;
52672;PMS5003;38568;53.260;-2.504;2023-06-19T08:37:58;12;11;
52672;PMS5003;38568;53.260;-2.504;2023-06-19T08:40:24;15;14;
52672;PMS5003;38568;53.260;-2.504;2023-06-19T08:42:49;10;10;
52672;PMS5003;38568;53.260;-2.504;2023-06-19T08:45:15;10;9;
52672;PMS5003;38568;53.260;-2.504;2023-06-19T08:47:41;11;10;
52672;PMS5003;38568;53.260;-2.504;2023-06-19T08:50:07;15;14;
52672;PMS5003;38568;53.260;-2.504;2023-06-19T08:52:32;9;9;
52672;PMS5003;38568;53.260;-2.504;2023-06-19T08:54:58;12;12;
52672;PMS5003;38568;53.260;-2.504;2023-06-19T08:59:50;8;8;
52672;PMS5003;38568;53.260;-2.504;2023-06-19T09:02:15;8;8;
52672;PMS5003;38568;53.260;-2.504;2023-06-19T09:04:41;11;11;
52672;PMS5003;38568;53.260;-2.504;2023-06-19T09:07:07;10;10;
52672;PMS5003;38568;53.260;-2.504;2023-06-19T09:09:32;9;9;
52672;PMS5003;38568;53.260;-2.504;2023-06-19T09:11:59;7;7;
52672;PMS5003;38568;53.260;-2.504;2023-06-19T09:14:27;10;10;
52672;PMS5003;38568;53.260;-2.504;2023-06-19T09:16:50;9;9;
52672;PMS5003;38568;53.260;-2.504;2023-06-19T09:19:20;12;11;
52672;PMS5003;38568;53.260;-2.504;2023-06-19T09:21:41;11;11;
52672;PMS5003;38568;53.260;-2.504;2023-06-19T09:24:07;10;10;
52672;PMS5003;38568;53.260;-2.504;2023-06-19T09:26:32;13;12;
52672;PMS5003;38568;53.260;-2.504;2023-06-19T09:29:08;11;10;
52672;PMS5003;38568;53.260;-2.504;2023-06-19T09:33:50;10;8;
52672;PMS5003;38568;53.260;-2.504;2023-06-19T09:36:16;8;8;
52672;PMS5003;38568;53.260;-2.504;2023-06-19T09:38:41;10;10;
52672;PMS5003;38568;53.260;-2.504;2023-06-19T09:41:07;10;9;
52672;PMS5003;38568;53.260;-2.504;2023-06-19T09:43:34;7;7;
52672;PMS5003;38568;53.260;-2.504;2023-06-19T09:45:59;8;8;
52672;PMS5003;38568;53.260;-2.504;2023-06-19T09:48:26;8;8;
52672;PMS5003;38568;53.260;-2.504;2023-06-19T09:50:51;8;8;
52672;PMS5003;38568;53.260;-2.504;2023-06-19T09:53:16;6;6;
52672;PMS5003;38568;53.260;-2.504;2023-06-19T09:55:42;9;9;
52672;PMS5003;38568;53.260;-2.504;2023-06-19T09:58:08;9;9;
52672;PMS5003;38568;53.260;-2.504;2023-06-19T10:00:33;9;8;
52672;PMS5003;38568;53.260;-2.504;2023-06-19T10:02:59;9;8;
52672;PMS5003;38568;53.260;-2.504;2023-06-19T10:05:29;6;6;
52672;PMS5003;38568;53.260;-2.504;2023-06-19T10:07:50;7;7;
52672;PMS5003;38568;53.260;-2.504;2023-06-19T10:12:43;9;9;
52672;PMS5003;38568;53.260;-2.504;2023-06-19T10:15:10;7;7;
52672;PMS5003;38568;53.260;-2.504;2023-06-19T10:17:33;7;6;
52672;PMS5003;38568;53.260;-2.504;2023-06-19T10:19:59;6;6;
52672;PMS5003;38568;53.260;-2.504;2023-06-19T10:22:29;8;8;
52672;PMS5003;38568;53.260;-2.504;2023-06-19T10:24:51;7;6;
52672;PMS5003;38568;53.260;-2.504;2023-06-19T10:27:20;7;7;
52672;PMS5003;38568;53.260;-2.504;2023-06-19T10:29:42;6;6;
52672;PMS5003;38568;53.260;-2.504;2023-06-19T10:32:08;7;6;
52672;PMS5003;38568;53.260;-2.504;2023-06-19T10:34:34;6;6;
52672;PMS5003;38568;53.260;-2.504;2023-06-19T10:36:59;7;6;
52672;PMS5003;38568;53.260;-2.504;2023-06-19T10:39:25;7;7;
52672;PMS5003;38568;53.260;-2.504;2023-06-19T10:41:51;5;5;
52672;PMS5003;38568;53.260;-2.504;2023-06-19T10:44:16;5;5;
52672;PMS5003;38568;53.260;-2.504;2023-06-19T10:46:42;7;7;
52672;PMS5003;38568;53.260;-2.504;2023-06-19T10:49:08;8;8;
52672;PMS5003;38568;53.260;-2.504;2023-06-19T10:51:33;6;6;
52672;PMS5003;38568;53.260;-2.504;2023-06-19T10:53:59;8;8;
52672;PMS5003;38568;53.260;-2.504;2023-06-19T10:56:25;11;10;
52672;PMS5003;38568;53.260;-2.504;2023-06-19T10:58:58;8;8;
52672;PMS5003;38568;53.260;-2.504;2023-06-19T11:01:16;8;7;
52672;PMS5003;38568;53.260;-2.504;2023-06-19T11:03:42;7;7;
52672;PMS5003;38568;53.260;-2.504;2023-06-19T11:06:07;7;7;
52672;PMS5003;38568;53.260;-2.504;2023-06-19T11:08:33;7;7;
52672;PMS5003;38568;53.260;-2.504;2023-06-19T11:10:59;6;6;
52672;PMS5003;38568;53.260;-2.504;2023-06-19T11:13:25;9;8;
52672;PMS5003;38568;53.260;-2.504;2023-06-19T11:15:50;8;7;
52672;PMS5003;38568;53.260;-2.504;2023-06-19T11:18:16;7;7;
52672;PMS5003;38568;53.260;-2.504;2023-06-19T11:20:43;6;6;
52672;PMS5003;38568;53.260;-2.504;2023-06-19T11:23:07;8;7;
52672;PMS5003;38568;53.260;-2.504;2023-06-19T11:25:34;7;6;
52672;PMS5003;38568;53.260;-2.504;2023-06-19T11:27:59;6;6;
52672;PMS5003;38568;53.260;-2.504;2023-06-19T11:32:50;6;6;
52672;PMS5003;38568;53.260;-2.504;2023-06-19T11:35:16;5;5;
52672;PMS5003;38568;53.260;-2.504;2023-06-19T11:37:42;6;6;
52672;PMS5003;38568;53.260;-2.504;2023-06-19T11:40:08;5;5;
52672;PMS5003;38568;53.260;-2.504;2023-06-19T11:42:33;5;5;
52672;PMS5003;38568;53.260;-2.504;2023-06-19T11:45:00;6;6;
52672;PMS5003;38568;53.260;-2.504;2023-06-19T11:47:25;8;6;
52672;PMS5003;38568;53.260;-2.504;2023-06-19T11:49:51;6;6;
52672;PMS5003;38568;53.260;-2.504;2023-06-19T11:52:17;6;5;
52672;PMS5003;38568;53.260;-2.504;2023-06-19T11:54:42;7;7;
52672;PMS5003;38568;53.260;-2.504;2023-06-19T11:57:08;4;4;
52672;PMS5003;38568;53.260;-2.504;2023-06-19T11:59:33;4;4;
52672;PMS5003;38568;53.260;-2.504;2023-06-19T12:01:59;4;4;
52672;PMS5003;38568;53.260;-2.504;2023-06-19T12:04:25;6;6;
52672;PMS5003;38568;53.260;-2.504;2023-06-19T12:06:51;4;3;
52672;PMS5003;38568;53.260;-2.504;2023-06-19T12:09:17;5;5;
52672;PMS5003;38568;53.260;-2.504;2023-06-19T12:11:42;5;5;
52672;PMS5003;38568;53.260;-2.504;2023-06-19T12:14:08;4;4;
52672;PMS5003;38568;53.260;-2.504;2023-06-19T12:16:34;2;2;
52672;PMS5003;38568;53.260;-2.504;2023-06-19T12:19:00;4;4;
52672;PMS5003;38568;53.260;-2.504;2023-06-19T12:21:25;5;5;
52672;PMS5003;38568;53.260;-2.504;2023-06-19T12:23:51;4;4;
52672;PMS5003;38568;53.260;-2.504;2023-06-19T12:26:17;5;5;
52672;PMS5003;38568;53.260;-2.504;2023-06-19T12:28:43;4;3;
52672;PMS5003;38568;53.260;-2.504;2023-06-19T12:31:08;9;7;
52672;PMS5003;38568;53.260;-2.504;2023-06-19T12:33:33;7;7;
52672;PMS5003;38568;53.260;-2.504;2023-06-19T12:35:59;4;4;
52672;PMS5003;38568;53.260;-2.504;2023-06-19T12:38:24;5;5;
52672;PMS5003;38568;53.260;-2.504;2023-06-19T12:40:50;6;5;
52672;PMS5003;38568;53.260;-2.504;2023-06-19T12:43:15;4;4;
52672;PMS5003;38568;53.260;-2.504;2023-06-19T12:45:41;6;6;
52672;PMS5003;38568;53.260;-2.504;2023-06-19T12:48:07;5;4;
52672;PMS5003;38568;53.260;-2.504;2023-06-19T12:50:32;5;5;
52672;PMS5003;38568;53.260;-2.504;2023-06-19T12:52:58;4;4;
52672;PMS5003;38568;53.260;-2.504;2023-06-19T12:55:24;6;4;
52672;PMS5003;38568;53.260;-2.504;2023-06-19T12:57:50;7;7;
52672;PMS5003;38568;53.260;-2.504;2023-06-19T13:00:15;8;8;
52672;PMS5003;38568;53.260;-2.504;2023-06-19T13:02:41;5;5;
52672;PMS5003;38568;53.260;-2.504;2023-06-19T13:05:07;4;4;
52672;PMS5003;38568;53.260;-2.504;2023-06-19T13:07:32;5;5;
52672;PMS5003;38568;53.260;-2.504;2023-06-19T13:09:58;3;3;
52672;PMS5003;38568;53.260;-2.504;2023-06-19T13:12:24;4;4;
52672;PMS5003;38568;53.260;-2.504;2023-06-19T13:14:50;3;3;
52672;PMS5003;38568;53.260;-2.504;2023-06-19T13:17:16;6;6;
52672;PMS5003;38568;53.260;-2.504;2023-06-19T13:19:41;7;7;
52672;PMS5003;38568;53.260;-2.504;2023-06-19T13:22:07;5;4;
52672;PMS5003;38568;53.260;-2.504;2023-06-19T13:24:33;5;5;
52672;PMS5003;38568;53.260;-2.504;2023-06-19T13:26:59;6;5;
52672;PMS5003;38568;53.260;-2.504;2023-06-19T13:29:24;5;5;
52672;PMS5003;38568;53.260;-2.504;2023-06-19T13:31:50;7;5;
52672;PMS5003;38568;53.260;-2.504;2023-06-19T13:34:16;6;6;
52672;PMS5003;38568;53.260;-2.504;2023-06-19T13:36:42;6;6;
52672;PMS5003;38568;53.260;-2.504;2023-06-19T13:39:07;4;4;
52672;PMS5003;38568;53.260;-2.504;2023-06-19T13:41:33;5;5;
52672;PMS5003;38568;53.260;-2.504;2023-06-19T13:43:59;5;5;
52672;PMS5003;38568;53.260;-2.504;2023-06-19T13:46:25;4;4;
52672;PMS5003;38568;53.260;-2.504;2023-06-19T13:48:51;7;6;
52672;PMS5003;38568;53.260;-2.504;2023-06-19T13:51:17;4;4;
52672;PMS5003;38568;53.260;-2.504;2023-06-19T13:53:42;5;5;
52672;PMS5003;38568;53.260;-2.504;2023-06-19T13:56:08;4;4;
52672;PMS5003;38568;53.260;-2.504;2023-06-19T13:58:34;3;2;
52672;PMS5003;38568;53.260;-2.504;2023-06-19T14:01:00;6;6;
52672;PMS5003;38568;53.260;-2.504;2023-06-19T14:03:25;4;4;
52672;PMS5003;38568;53.260;-2.504;2023-06-19T14:05:51;4;4;
52672;PMS5003;38568;53.260;-2.504;2023-06-19T14:08:17;4;4;
52672;PMS5003;38568;53.260;-2.504;2023-06-19T14:10:43;4;4;
52672;PMS5003;38568;53.260;-2.504;2023-06-19T14:13:09;4;4;
52672;PMS5003;38568;53.260;-2.504;2023-06-19T14:15:35;3;3;
52672;PMS5003;38568;53.260;-2.504;2023-06-19T14:18:00;7;7;
52672;PMS5003;38568;53.260;-2.504;2023-06-19T14:20:26;4;4;
52672;PMS5003;38568;53.260;-2.504;2023-06-19T14:22:52;3;3;
52672;PMS5003;38568;53.260;-2.504;2023-06-19T14:25:18;4;4;
52672;PMS5003;38568;53.260;-2.504;2023-06-19T14:27:43;3;3;
52672;PMS5003;38568;53.260;-2.504;2023-06-19T14:30:09;5;5;
52672;PMS5003;38568;53.260;-2.504;2023-06-19T14:32:35;4;4;
52672;PMS5003;38568;53.260;-2.504;2023-06-19T14:35:01;5;4;
52672;PMS5003;38568;53.260;-2.504;2023-06-19T14:37:27;5;5;
52672;PMS5003;38568;53.260;-2.504;2023-06-19T14:39:58;3;3;
52672;PMS5003;38568;53.260;-2.504;2023-06-19T14:42:19;2;2;
52672;PMS5003;38568;53.260;-2.504;2023-06-19T14:44:45;4;4;
52672;PMS5003;38568;53.260;-2.504;2023-06-19T14:47:11;5;5;
52672;PMS5003;38568;53.260;-2.504;2023-06-19T14:49:37;5;4;
52672;PMS5003;38568;53.260;-2.504;2023-06-19T14:52:03;5;5;
52672;PMS5003;38568;53.260;-2.504;2023-06-19T14:54:28;4;4;
52672;PMS5003;38568;53.260;-2.504;2023-06-19T14:56:54;4;4;
52672;PMS5003;38568;53.260;-2.504;2023-06-19T14:59:20;6;6;
52672;PMS5003;38568;53.260;-2.504;2023-06-19T15:01:46;3;3;
52672;PMS5003;38568;53.260;-2.504;2023-06-19T15:04:11;3;3;
52672;PMS5003;38568;53.260;-2.504;2023-06-19T15:06:37;2;2;
52672;PMS5003;38568;53.260;-2.504;2023-06-19T15:09:03;4;4;
52672;PMS5003;38568;53.260;-2.504;2023-06-19T15:11:29;3;3;
52672;PMS5003;38568;53.260;-2.504;2023-06-19T15:13:55;4;4;
52672;PMS5003;38568;53.260;-2.504;2023-06-19T15:16:20;4;4;
52672;PMS5003;38568;53.260;-2.504;2023-06-19T15:18:45;6;6;
52672;PMS5003;38568;53.260;-2.504;2023-06-19T15:21:11;5;5;
52672;PMS5003;38568;53.260;-2.504;2023-06-19T15:23:37;3;3;
52672;PMS5003;38568;53.260;-2.504;2023-06-19T15:26:03;4;4;
52672;PMS5003;38568;53.260;-2.504;2023-06-19T15:28:28;4;4;
52672;PMS5003;38568;53.260;-2.504;2023-06-19T15:30:54;6;5;
52672;PMS5003;38568;53.260;-2.504;2023-06-19T15:33:20;7;6;
52672;PMS5003;38568;53.260;-2.504;2023-06-19T15:35:46;6;6;
52672;PMS5003;38568;53.260;-2.504;2023-06-19T15:38:12;5;4;
52672;PMS5003;38568;53.260;-2.504;2023-06-19T15:40:37;4;3;
52672;PMS5003;38568;53.260;-2.504;2023-06-19T15:43:04;7;7;
52672;PMS5003;38568;53.260;-2.504;2023-06-19T15:45:29;5;5;
52672;PMS5003;38568;53.260;-2.504;2023-06-19T15:47:54;5;5;
52672;PMS5003;38568;53.260;-2.504;2023-06-19T15:50:20;7;7;
52672;PMS5003;38568;53.260;-2.504;2023-06-19T15:52:46;7;7;
52672;PMS5003;38568;53.260;-2.504;2023-06-19T15:55:12;7;7;
52672;PMS5003;38568;53.260;-2.504;2023-06-19T15:57:38;7;7;
52672;PMS5003;38568;53.260;-2.504;2023-06-19T16:00:04;8;8;
52672;PMS5003;38568;53.260;-2.504;2023-06-19T16:02:29;7;6;
52672;PMS5003;38568;53.260;-2.504;2023-06-19T16:04:55;6;6;
52672;PMS5003;38568;53.260;-2.504;2023-06-19T16:07:21;5;5;
52672;PMS5003;38568;53.260;-2.504;2023-06-19T16:09:47;7;6;
52672;PMS5003;38568;53.260;-2.504;2023-06-19T16:12:12;6;5;
52672;PMS5003;38568;53.260;-2.504;2023-06-19T16:14:38;6;6;